Terminal Aerodrome Forecast
Issued by NWS

Home | Current Version | Previous Version | Text Only | Print | Product List | Glossary On
Versions: 1 2 3 4 5 6 7 8 9 10 11 12 13 14 15 16 17 18 19 20 21 22 23 24 25 26
018
FTUS42 KKEY 240522
TAFMTH
TAF
KMTH 240522Z 2406/2506 30007KT P6SM SCT018 SCT040
      TEMPO 2411/2415 BKN018 BKN040
     FM241500 31005KT P6SM FEW018=

USA.gov is the U.S. government's official web portal to all federal, state and local government web resources and services.